Latest Coastal Weather Observations for Newcastle Nobbys

IDN60701

Issued at 11:11 am EST Thursday 25 May 2017 (issued every 10 minutes, with the page automatically refreshed every 10 minutes)

About coastal observations | Map of coastal stations | Coastal observations for NSW | Marine services | Other Formats
Station Details ID: 061055 Name: NEWCASTLE NOBBYS SIGNAL STATION AWS Lat: -32.92 Lon: 151.80 Height: 33.0 m
Data from the previous 72 hours. | See also: Recent months at Newcastle Nobbys
Date/Time
EST
Temp
°C
Wind Pressure Rain since
9am
mm
Weather Cloud Vis
km
Sea
Height
m
Swell
Dir  Spd
kts
Gust
kts
hPa Trend Height
m
Period
s
Dir
25/11:00am 19.7 WNW 5 9 - - 0.0 - - - - - - -
25/10:30am 19.2 WNW 7 10 - - 0.0 - - - - - - -
25/10:00am 17.8 WNW 7 9 - - 0.0 - - - - - - -
25/09:30am 16.1 NW 7 10 - - 0.0 - - - - - - -
25/09:00am 15.6 WNW 7 10 - - 0.0 - - - - - - -
25/08:30am 14.5 WNW 7 9 - - 0.0 - - - - - - -
25/08:00am 13.1 WNW 9 10 - - 0.0 - - - - - - -
25/07:30am 12.3 WNW 6 8 - - 0.0 - - - - - - -
25/07:00am 11.6 NW 7 9 - - 0.0 - - - - - - -
25/06:30am 11.6 WNW 5 7 - - 0.0 - - - - - - -
25/06:00am 11.8 WNW 7 8 - - 0.0 - - - - - - -
25/05:30am 12.1 NW 6 8 - - 0.0 - - - - - - -
25/05:00am 12.5 NW 8 10 - - 0.0 - - - - - - -
25/04:30am 12.6 WNW 6 9 - - 0.0 - - - - - - -
25/04:00am 12.8 W 8 10 - - 0.0 - - - - - - -
25/03:30am 13.1 WNW 8 10 - - 0.0 - - - - - - -
25/03:00am 13.3 WNW 9 11 - - 0.0 - - - - - - -
25/02:30am 13.3 WNW 5 8 - - 0.0 - - - - - - -
25/02:00am 13.5 WNW 6 8 - - 0.0 - - - - - - -
25/01:30am 14.0 W 8 10 - - 0.0 - - - - - - -
25/01:00am 14.2 W 8 10 - - 0.0 - - - - - - -
25/12:30am 14.7 W 8 10 - - 0.0 - - - - - - -
25/12:00am 14.8 W 8 10 - - 0.0 - - - - - - -
 
Date/Time
EST
Temp
°C
Wind Pressure Rain since
9am
mm
Weather Cloud Vis
km
Sea
Height
m
Swell
Dir  Spd
kts
Gust
kts
hPa Trend Height
m
Period
s
Dir
24/11:30pm 15.0 WNW 7 9 - - 0.0 - - - - - - -
24/11:00pm 15.3 WNW 7 9 - - 0.0 - - - - - - -
24/10:30pm 15.5 WNW 6 8 - - 0.0 - - - - - - -
24/10:00pm 16.3 W 9 11 - - 0.0 - - - - - - -
24/09:30pm 16.9 WSW 9 15 - - 0.0 - - - - - - -
24/09:00pm 17.5 WSW 9 12 - - 0.0 - - - - - - -
24/08:30pm 18.1 WSW 8 13 - - 0.0 - - - - - - -
24/08:00pm 18.6 WSW 10 15 - - 0.0 - - - - - - -
24/07:30pm 19.0 WSW 9 15 - - 0.0 - - - - - - -
24/07:00pm 19.3 SW 9 14 - - 0.0 - - - - - - -
24/06:30pm 19.5 WSW 8 11 - - 0.0 - - - - - - -
24/06:00pm 19.9 WSW 6 11 - - 0.0 - - - - - - -
24/05:30pm 20.1 SW 5 7 - - 0.0 - - - - - - -
24/05:00pm 21.0 W 10 13 - - 0.0 - - - - - - -
24/04:30pm 22.4 W 9 12 - - 0.0 - - - - - - -
24/04:00pm 22.8 WNW 10 16 - - 0.0 - - - - - - -
24/03:30pm 22.4 WNW 13 17 - - 0.0 - - - - - - -
24/03:00pm 22.7 WNW 13 19 - - 0.0 - - - - - - -
24/02:30pm 22.6 WNW 15 20 - - 0.0 - - - - - - -
24/02:00pm 22.7 NW 15 21 - - 0.0 - - - - - - -
24/01:30pm 22.9 NW 14 19 - - 0.0 - - - - - - -
24/01:00pm 22.7 WNW 14 19 - - 0.0 - - - - - - -
24/12:30pm 22.8 NW 15 19 - - 0.0 - - - - - - -
24/12:00pm 22.8 NW 14 19 - - 0.0 - - - - - - -
24/11:30am 21.9 WNW 13 19 - - 0.0 - - - - - - -
24/11:00am 21.0 NW 13 17 - - 0.0 - - - - - - -
24/10:30am 20.0 NNW 11 17 - - 0.0 - - - - - - -
24/10:00am 18.8 N 7 8 - - 0.0 - - - - - - -
24/09:30am 18.1 N 7 9 - - 0.0 - - - - - - -
24/09:00am 18.0 N 5 6 - - 1.6 - - - - - - -
24/08:30am 17.1 NNW 3 4 - - 1.6 - - - - - - -
24/08:00am 15.8 NW 3 5 - - 1.6 - - - - - - -
24/07:30am 15.7 NW 3 4 - - 1.6 - - - - - - -
24/07:00am 15.6 WSW 7 9 - - 1.6 - - - - - - -
24/06:30am 16.3 N 11 13 - - 1.6 - - - - - - -
24/06:00am 15.4 W 2 4 - - 0.2 Recent precip. - - - - - -
24/05:30am 15.3 W 9 16 - - 0.0 - - - - - - -
24/05:00am 15.4 NNW 6 9 - - 0.0 - - - - - - -
24/04:30am 15.5 NNW 8 9 - - 0.0 - - - - - - -
24/04:00am 15.4 N 7 8 - - 0.0 - - - - - - -
24/03:30am 15.5 NW 7 9 - - 0.0 - - - - - - -
24/03:00am 15.2 NNW 7 8 - - 0.0 - - - - - - -
24/02:30am 15.6 N 8 10 - - 0.0 - - - - - - -
24/02:00am 16.4 NNW 8 10 - - 0.0 - - - - - - -
24/01:30am 16.4 NNW 4 7 - - 0.0 - - - - - - -
24/01:00am 16.3 NNW 6 9 - - 0.0 - - - - - - -
24/12:30am 16.4 NNW 8 9 - - 0.0 - - - - - - -
24/12:00am 16.6 NNW 5 7 - - 0.0 - - - - - - -
 
Date/Time
EST
Temp
°C
Wind Pressure Rain since
9am
mm
Weather Cloud Vis
km
Sea
Height
m
Swell
Dir  Spd
kts
Gust
kts
hPa Trend Height
m
Period
s
Dir
23/11:30pm 16.7 NNW 6 7 - - 0.0 - - - - - - -
23/11:00pm 17.3 NNW 5 7 - - 0.0 - - - - - - -
23/10:30pm 17.5 NW 5 8 - - 0.0 - - - - - - -
23/10:00pm 17.9 N 8 10 - - 0.0 - - - - - - -
23/09:30pm 18.1 N 9 11 - - 0.0 - - - - - - -
23/09:00pm 18.3 NNE 9 12 - - 0.0 - - - - - - -
23/08:30pm 18.8 NNE 9 11 - - 0.0 - - - - - - -
23/08:00pm 19.1 NE 7 10 - - 0.0 - - - - - - -
23/07:30pm 19.3 NNE 8 11 - - 0.0 - - - - - - -
23/07:00pm 19.5 NNE 9 12 - - 0.0 - - - - - - -
23/06:30pm 19.7 NNE 9 11 - - 0.0 - - - - - - -
23/06:00pm 20.3 NE 7 10 - - 0.0 - - - - - - -
23/05:30pm 20.6 NE 6 7 - - 0.0 - - - - - - -
23/05:00pm 20.4 NE 7 8 - - 0.0 - - - - - - -
23/04:30pm 20.7 ENE 7 9 - - 0.0 - - - - - - -
23/04:00pm 22.2 NE 6 8 - - 0.0 - - - - - - -
23/03:30pm 23.0 N 6 8 - - 0.0 - - - - - - -
23/03:00pm 22.5 N 7 9 - - 0.0 - - - - - - -
23/02:30pm 23.0 N 7 9 - - 0.0 - - - - - - -
23/02:00pm 22.4 N 8 10 - - 0.0 - - - - - - -
23/01:30pm 22.2 N 6 9 - - 0.0 - - - - - - -
23/01:00pm 21.4 NNW 8 11 - - 0.0 - - - - - - -
23/12:30pm 20.5 NNW 7 11 - - 0.0 - - - - - - -
23/12:00pm 19.7 NW 9 12 - - 0.0 - - - - - - -
23/11:30am 17.9 NW 10 14 - - 0.0 - - - - - - -
23/11:00am 17.2 NNW 11 14 - - 0.0 - - - - - - -
23/10:30am 16.7 NW 10 13 - - 0.0 - - - - - - -
23/10:00am 16.7 NW 10 12 - - 0.0 - - - - - - -
23/09:30am 15.8 NW 10 13 - - 0.0 - - - - - - -
23/09:00am 15.7 NW 11 14 - - 0.0 - - - - - - -
23/08:30am 15.2 NW 10 13 - - 0.0 - - - - - - -
23/08:00am 14.4 NW 10 13 - - 0.0 - - - - - - -
23/07:30am 16.3 NW 3 4 - - 0.0 - - - - - - -
23/07:00am 16.1 NNW 5 7 - - 0.0 - - - - - - -
23/06:30am 16.5 NW 4 5 - - 0.0 - - - - - - -
23/06:00am 16.5 NW 3 4 - - 0.0 - - - - - - -
23/05:30am 16.8 NW 5 6 - - 0.0 - - - - - - -
23/05:00am 17.5 NW 3 4 - - 0.0 - - - - - - -
23/04:30am 17.5 NW 3 5 - - 0.0 - - - - - - -
23/04:00am 17.7 NNW 3 5 - - 0.0 - - - - - - -
23/03:30am 18.3 NW 2 3 - - 0.0 - - - - - - -
23/03:00am 18.4 NNE 3 5 - - 0.0 - - - - - - -
23/02:30am 18.2 NNE 1 2 - - 0.0 - - - - - - -
23/02:00am 18.1 N 3 4 - - 0.0 - - - - - - -
23/01:30am 18.4 N 3 4 - - 0.0 - - - - - - -
23/01:00am 18.8 NNE 4 5 - - 0.0 - - - - - - -
23/12:30am 19.3 NNE 5 7 - - 0.0 - - - - - - -
23/12:00am 19.8 NE 6 9 - - 0.0 - - - - - - -
 
Date/Time
EST
Temp
°C
Wind Pressure Rain since
9am
mm
Weather Cloud Vis
km
Sea
Height
m
Swell
Dir  Spd
kts
Gust
kts
hPa Trend Height
m
Period
s
Dir
22/11:30pm 19.6 NE 8 11 - - 0.0 - - - - - - -
22/11:00pm 20.0 NNE 7 9 - - 0.0 - - - - - - -
22/10:30pm 20.0 ENE 9 11 - - 0.0 - - - - - - -
22/10:00pm 20.2 ENE 8 11 - - 0.0 - - - - - - -
22/09:30pm 20.2 ENE 8 12 - - 0.0 - - - - - - -
22/09:00pm 20.1 ENE 8 10 - - 0.0 - - - - - - -
22/08:30pm 20.0 E 9 10 - - 0.0 - - - - - - -
22/08:00pm 20.1 E 9 13 - - 0.0 - - - - - - -
22/07:30pm 19.9 E 10 13 - - 0.0 - - - - - - -
22/07:00pm 20.0 E 10 11 - - 0.0 - - - - - - -
22/06:30pm 20.0 ESE 9 11 - - 0.0 - - - - - - -
22/06:00pm 19.8 ESE 9 11 - - 0.0 - - - - - - -
22/05:30pm 19.9 ESE 9 11 - - 0.0 - - - - - - -
22/05:00pm 19.9 ESE 9 11 - - 0.0 - - - - - - -
22/04:30pm 20.4 ESE 8 10 - - 0.0 - - - - - - -
22/04:00pm 20.5 SE 8 10 - - 0.0 - - - - - - -
22/03:30pm 20.8 SE 9 11 - - 0.0 - - - - - - -
22/03:00pm 21.0 SE 10 12 - - 0.0 - - - - - - -
22/02:30pm 21.2 SE 8 10 - - 0.0 - - - - - - -
22/02:00pm 21.3 SE 8 9 - - 0.0 - - - - - - -
22/01:30pm 20.8 SE 7 9 - - 0.0 - - - - - - -
22/01:00pm 20.1 SSW 9 11 - - 0.0 - - - - - - -
22/12:30pm 19.8 S 10 14 - - 0.0 - - - - - - -
22/12:00pm 19.8 SSW 9 12 - - 0.0 - - - - - - -
22/11:30am 19.9 SSW 10 13 - - 0.0 - - - - - - -

Other Formats:

Comma delimited format used in spreadsheet applications
http://www.bom.gov.au/fwo/IDN60701/IDN60701.94774.axf

JavaScript Object Notation format (JSON) in row-major order
http://www.bom.gov.au/fwo/IDN60701/IDN60701.94774.json